sensor_id;sensor_type;location;lat;lon;timestamp;pressure;altitude;pressure_sealevel;temperature
76476;BMP280;65308;50.078;14.854;2023-02-13T00:01:13;101217.13;;;7.86
76476;BMP280;65308;50.078;14.854;2023-02-13T00:03:40;101217.13;;;7.90
76476;BMP280;65308;50.078;14.854;2023-02-13T00:06:08;101216.28;;;7.78
76476;BMP280;65308;50.078;14.854;2023-02-13T00:08:35;101219.34;;;7.77
76476;BMP280;65308;50.078;14.854;2023-02-13T00:11:02;101220.09;;;7.81
76476;BMP280;65308;50.078;14.854;2023-02-13T00:13:32;101216.78;;;7.91
76476;BMP280;65308;50.078;14.854;2023-02-13T00:16:00;101219.94;;;8.04
76476;BMP280;65308;50.078;14.854;2023-02-13T00:18:29;101216.56;;;8.11
76476;BMP280;65308;50.078;14.854;2023-02-13T00:21:00;101222.00;;;8.21
76476;BMP280;65308;50.078;14.854;2023-02-13T00:23:28;101225.09;;;8.27
76476;BMP280;65308;50.078;14.854;2023-02-13T00:25:55;101229.63;;;8.23
76476;BMP280;65308;50.078;14.854;2023-02-13T00:28:32;101222.03;;;8.25
76476;BMP280;65308;50.078;14.854;2023-02-13T00:31:04;101220.50;;;8.24
76476;BMP280;65308;50.078;14.854;2023-02-13T00:33:32;101227.34;;;8.25
76476;BMP280;65308;50.078;14.854;2023-02-13T00:36:05;101227.81;;;8.34
76476;BMP280;65308;50.078;14.854;2023-02-13T00:38:33;101227.81;;;8.34
76476;BMP280;65308;50.078;14.854;2023-02-13T00:41:00;101219.75;;;8.27
76476;BMP280;65308;50.078;14.854;2023-02-13T00:43:27;101219.34;;;8.25
76476;BMP280;65308;50.078;14.854;2023-02-13T00:45:56;101222.81;;;8.29
76476;BMP280;65308;50.078;14.854;2023-02-13T00:48:24;101226.31;;;7.89
76476;BMP280;65308;50.078;14.854;2023-02-13T00:50:52;101225.19;;;7.93
76476;BMP280;65308;50.078;14.854;2023-02-13T00:53:19;101214.59;;;8.00
76476;BMP280;65308;50.078;14.854;2023-02-13T00:55:47;101211.59;;;8.09
76476;BMP280;65308;50.078;14.854;2023-02-13T00:58:14;101214.31;;;8.13
76476;BMP280;65308;50.078;14.854;2023-02-13T01:00:42;101218.13;;;8.19
76476;BMP280;65308;50.078;14.854;2023-02-13T01:03:13;101214.34;;;8.20
76476;BMP280;65308;50.078;14.854;2023-02-13T01:05:40;101220.03;;;8.18
76476;BMP280;65308;50.078;14.854;2023-02-13T01:08:07;101215.13;;;8.17
76476;BMP280;65308;50.078;14.854;2023-02-13T01:10:36;101215.88;;;8.21
76476;BMP280;65308;50.078;14.854;2023-02-13T01:13:03;101215.91;;;8.24
76476;BMP280;65308;50.078;14.854;2023-02-13T01:15:30;101209.09;;;8.27
76476;BMP280;65308;50.078;14.854;2023-02-13T01:17:58;101215.56;;;8.30
76476;BMP280;65308;50.078;14.854;2023-02-13T01:20:28;101204.78;;;8.15
76476;BMP280;65308;50.078;14.854;2023-02-13T01:22:56;101207.41;;;8.08
76476;BMP280;65308;50.078;14.854;2023-02-13T01:25:24;101204.38;;;8.13
76476;BMP280;65308;50.078;14.854;2023-02-13T01:27:52;101204.63;;;7.94
76476;BMP280;65308;50.078;14.854;2023-02-13T01:30:20;101200.47;;;7.96
76476;BMP280;65308;50.078;14.854;2023-02-13T01:32:47;101199.34;;;8.01
76476;BMP280;65308;50.078;14.854;2023-02-13T01:35:14;101198.66;;;8.08
76476;BMP280;65308;50.078;14.854;2023-02-13T01:37:43;101190.66;;;8.08
76476;BMP280;65308;50.078;14.854;2023-02-13T01:40:12;101197.16;;;8.14
76476;BMP280;65308;50.078;14.854;2023-02-13T01:42:40;101202.69;;;7.91
76476;BMP280;65308;50.078;14.854;2023-02-13T01:45:19;101198.88;;;7.92
76476;BMP280;65308;50.078;14.854;2023-02-13T01:47:50;101191.31;;;7.97
76476;BMP280;65308;50.078;14.854;2023-02-13T01:50:21;101193.25;;;8.00
76476;BMP280;65308;50.078;14.854;2023-02-13T01:52:53;101198.25;;;8.06
76476;BMP280;65308;50.078;14.854;2023-02-13T01:55:23;101192.91;;;8.06
76476;BMP280;65308;50.078;14.854;2023-02-13T01:57:53;101197.88;;;8.11
76476;BMP280;65308;50.078;14.854;2023-02-13T02:00:22;101200.91;;;8.06
76476;BMP280;65308;50.078;14.854;2023-02-13T02:02:55;101202.53;;;7.73
76476;BMP280;65308;50.078;14.854;2023-02-13T02:05:26;101205.69;;;7.86
76476;BMP280;65308;50.078;14.854;2023-02-13T02:07:56;101202.72;;;7.94
76476;BMP280;65308;50.078;14.854;2023-02-13T02:10:24;101208.09;;;8.01
76476;BMP280;65308;50.078;14.854;2023-02-13T02:12:56;101201.25;;;8.00
76476;BMP280;65308;50.078;14.854;2023-02-13T02:15:25;101198.97;;;8.03
76476;BMP280;65308;50.078;14.854;2023-02-13T02:17:52;101189.09;;;8.07
76476;BMP280;65308;50.078;14.854;2023-02-13T02:20:28;101191.34;;;8.01
76476;BMP280;65308;50.078;14.854;2023-02-13T02:23:27;101188.25;;;7.95
76476;BMP280;65308;50.078;14.854;2023-02-13T02:26:18;101187.13;;;8.00
76476;BMP280;65308;50.078;14.854;2023-02-13T02:32:02;101196.69;;;8.05
76476;BMP280;65308;50.078;14.854;2023-02-13T02:34:37;101195.16;;;8.04
76476;BMP280;65308;50.078;14.854;2023-02-13T02:37:20;101185.94;;;7.94
76476;BMP280;65308;50.078;14.854;2023-02-13T02:39:59;101187.13;;;7.96
76476;BMP280;65308;50.078;14.854;2023-02-13T02:42:47;101192.44;;;8.00
76476;BMP280;65308;50.078;14.854;2023-02-13T02:45:24;101183.69;;;7.96
76476;BMP280;65308;50.078;14.854;2023-02-13T02:47:59;101182.13;;;7.91
76476;BMP280;65308;50.078;14.854;2023-02-13T02:50:47;101182.53;;;7.93
76476;BMP280;65308;50.078;14.854;2023-02-13T02:53:22;101186.72;;;7.94
76476;BMP280;65308;50.078;14.854;2023-02-13T02:56:00;101185.97;;;7.97
76476;BMP280;65308;50.078;14.854;2023-02-13T02:58:35;101180.63;;;7.97
76476;BMP280;65308;50.078;14.854;2023-02-13T03:01:23;101173.03;;;7.96
76476;BMP280;65308;50.078;14.854;2023-02-13T03:04:15;101177.22;;;8.00
76476;BMP280;65308;50.078;14.854;2023-02-13T03:07:03;101168.38;;;7.89
76476;BMP280;65308;50.078;14.854;2023-02-13T03:09:36;101169.13;;;7.86
76476;BMP280;65308;50.078;14.854;2023-02-13T03:12:37;101166.84;;;7.88
76476;BMP280;65308;50.078;14.854;2023-02-13T03:15:25;101162.72;;;7.94
76476;BMP280;65308;50.078;14.854;2023-02-13T03:17:53;101166.13;;;7.95
76476;BMP280;65308;50.078;14.854;2023-02-13T03:20:44;101162.31;;;7.92
76476;BMP280;65308;50.078;14.854;2023-02-13T03:23:34;101163.03;;;7.89
76476;BMP280;65308;50.078;14.854;2023-02-13T03:26:27;101167.63;;;7.89
76476;BMP280;65308;50.078;14.854;2023-02-13T03:29:13;101163.41;;;7.88
76476;BMP280;65308;50.078;14.854;2023-02-13T03:32:06;101166.78;;;7.81
76476;BMP280;65308;50.078;14.854;2023-02-13T03:34:36;101164.09;;;7.81
76476;BMP280;65308;50.078;14.854;2023-02-13T03:37:24;101167.59;;;7.85
76476;BMP280;65308;50.078;14.854;2023-02-13T03:40:15;101170.16;;;7.74
76476;BMP280;65308;50.078;14.854;2023-02-13T03:42:47;101166.50;;;7.49
76476;BMP280;65308;50.078;14.854;2023-02-13T03:45:20;101168.91;;;7.24
76476;BMP280;65308;50.078;14.854;2023-02-13T03:48:07;101164.50;;;7.39
76476;BMP280;65308;50.078;14.854;2023-02-13T03:50:56;101174.13;;;7.50
76476;BMP280;65308;50.078;14.854;2023-02-13T03:53:27;101168.00;;;7.50
76476;BMP280;65308;50.078;14.854;2023-02-13T03:55:56;101169.66;;;7.58
76476;BMP280;65308;50.078;14.854;2023-02-13T03:58:45;101164.31;;;7.58
76476;BMP280;65308;50.078;14.854;2023-02-13T04:01:31;101172.56;;;7.49
76476;BMP280;65308;50.078;14.854;2023-02-13T04:04:06;101175.63;;;7.48
76476;BMP280;65308;50.078;14.854;2023-02-13T04:06:39;101178.72;;;7.53
76476;BMP280;65308;50.078;14.854;2023-02-13T04:09:09;101174.66;;;7.29
76476;BMP280;65308;50.078;14.854;2023-02-13T04:11:39;101172.88;;;7.37
76476;BMP280;65308;50.078;14.854;2023-02-13T04:14:10;101177.59;;;7.21
76476;BMP280;65308;50.078;14.854;2023-02-13T04:16:42;101166.66;;;7.29
76476;BMP280;65308;50.078;14.854;2023-02-13T04:19:10;101178.97;;;7.41
76476;BMP280;65308;50.078;14.854;2023-02-13T04:21:38;101175.91;;;7.39
76476;BMP280;65308;50.078;14.854;2023-02-13T04:24:05;101177.44;;;7.37
76476;BMP280;65308;50.078;14.854;2023-02-13T04:26:36;101182.41;;;7.42
76476;BMP280;65308;50.078;14.854;2023-02-13T04:29:04;101184.31;;;7.41
76476;BMP280;65308;50.078;14.854;2023-02-13T04:31:31;101183.16;;;7.39
76476;BMP280;65308;50.078;14.854;2023-02-13T04:33:58;101182.38;;;7.38
76476;BMP280;65308;50.078;14.854;2023-02-13T04:36:25;101177.78;;;7.35
76476;BMP280;65308;50.078;14.854;2023-02-13T04:38:52;101184.94;;;7.31
76476;BMP280;65308;50.078;14.854;2023-02-13T04:41:19;101183.00;;;7.24
76476;BMP280;65308;50.078;14.854;2023-02-13T04:43:48;101181.72;;;7.15
76476;BMP280;65308;50.078;14.854;2023-02-13T04:46:17;101182.03;;;7.06
76476;BMP280;65308;50.078;14.854;2023-02-13T04:48:44;101179.59;;;6.97
76476;BMP280;65308;50.078;14.854;2023-02-13T04:51:11;101179.72;;;7.04
76476;BMP280;65308;50.078;14.854;2023-02-13T04:53:39;101179.72;;;7.04
76476;BMP280;65308;50.078;14.854;2023-02-13T04:56:06;101180.56;;;7.12
76476;BMP280;65308;50.078;14.854;2023-02-13T04:58:33;101176.03;;;7.13
76476;BMP280;65308;50.078;14.854;2023-02-13T05:01:01;101177.59;;;7.21
76476;BMP280;65308;50.078;14.854;2023-02-13T05:03:28;101178.84;;;7.27
76476;BMP280;65308;50.078;14.854;2023-02-13T05:05:55;101178.50;;;7.32
76476;BMP280;65308;50.078;14.854;2023-02-13T05:08:21;101178.19;;;7.37
76476;BMP280;65308;50.078;14.854;2023-02-13T05:10:48;101185.25;;;7.22
76476;BMP280;65308;50.078;14.854;2023-02-13T05:13:15;101178.19;;;7.03
76476;BMP280;65308;50.078;14.854;2023-02-13T05:15:46;101191.53;;;7.07
76476;BMP280;65308;50.078;14.854;2023-02-13T05:18:14;101190.94;;;7.21
76476;BMP280;65308;50.078;14.854;2023-02-13T05:20:41;101195.25;;;7.33
76476;BMP280;65308;50.078;14.854;2023-02-13T05:23:12;101183.16;;;7.39
76476;BMP280;65308;50.078;14.854;2023-02-13T05:25:50;101178.19;;;7.41
76476;BMP280;65308;50.078;14.854;2023-02-13T05:28:17;101184.34;;;7.45
76476;BMP280;65308;50.078;14.854;2023-02-13T05:31:01;101186.31;;;7.51
76476;BMP280;65308;50.078;14.854;2023-02-13T05:33:29;101182.56;;;7.56
76476;BMP280;65308;50.078;14.854;2023-02-13T05:35:56;101184.88;;;7.58
76476;BMP280;65308;50.078;14.854;2023-02-13T05:38:23;101186.78;;;7.61
76476;BMP280;65308;50.078;14.854;2023-02-13T05:41:02;101189.06;;;7.62
76476;BMP280;65308;50.078;14.854;2023-02-13T05:43:31;101189.91;;;7.66
76476;BMP280;65308;50.078;14.854;2023-02-13T05:46:02;101188.78;;;7.71
76476;BMP280;65308;50.078;14.854;2023-02-13T05:48:31;101188.66;;;7.57
76476;BMP280;65308;50.078;14.854;2023-02-13T05:51:01;101192.31;;;7.41
76476;BMP280;65308;50.078;14.854;2023-02-13T05:53:40;101201.41;;;7.40
76476;BMP280;65308;50.078;14.854;2023-02-13T05:56:07;101197.91;;;7.33
76476;BMP280;65308;50.078;14.854;2023-02-13T05:58:34;101191.03;;;7.28
76476;BMP280;65308;50.078;14.854;2023-02-13T06:01:01;101196.00;;;7.33
76476;BMP280;65308;50.078;14.854;2023-02-13T06:03:29;101189.88;;;7.29
76476;BMP280;65308;50.078;14.854;2023-02-13T06:08:31;101186.78;;;6.93
76476;BMP280;65308;50.078;14.854;2023-02-13T06:10:58;101175.91;;;6.75
76476;BMP280;65308;50.078;14.854;2023-02-13T06:13:24;101189.41;;;6.90
76476;BMP280;65308;50.078;14.854;2023-02-13T06:15:51;101199.31;;;6.89
76476;BMP280;65308;50.078;14.854;2023-02-13T06:18:18;101199.78;;;6.68
76476;BMP280;65308;50.078;14.854;2023-02-13T06:20:45;101202.31;;;6.88
76476;BMP280;65308;50.078;14.854;2023-02-13T06:23:12;101187.94;;;6.92
76476;BMP280;65308;50.078;14.854;2023-02-13T06:25:43;101190.25;;;6.94
76476;BMP280;65308;50.078;14.854;2023-02-13T06:28:10;101201.75;;;7.01
76476;BMP280;65308;50.078;14.854;2023-02-13T06:30:37;101192.63;;;7.02
76476;BMP280;65308;50.078;14.854;2023-02-13T06:33:05;101209.09;;;7.12
76476;BMP280;65308;50.078;14.854;2023-02-13T06:35:32;101200.78;;;7.17
76476;BMP280;65308;50.078;14.854;2023-02-13T06:37:58;101202.31;;;7.18
76476;BMP280;65308;50.078;14.854;2023-02-13T06:40:26;101203.50;;;6.90
76476;BMP280;65308;50.078;14.854;2023-02-13T06:42:54;101210.06;;;6.96
76476;BMP280;65308;50.078;14.854;2023-02-13T06:45:21;101204.03;;;7.03
76476;BMP280;65308;50.078;14.854;2023-02-13T06:47:48;101212.50;;;7.12
76476;BMP280;65308;50.078;14.854;2023-02-13T06:50:16;101203.81;;;7.15
76476;BMP280;65308;50.078;14.854;2023-02-13T06:52:48;101202.66;;;7.13
76476;BMP280;65308;50.078;14.854;2023-02-13T06:55:16;101196.59;;;7.19
76476;BMP280;65308;50.078;14.854;2023-02-13T06:57:45;101203.84;;;7.19
76476;BMP280;65308;50.078;14.854;2023-02-13T07:00:16;101209.16;;;7.19
76476;BMP280;65308;50.078;14.854;2023-02-13T07:02:44;101218.41;;;7.25
76476;BMP280;65308;50.078;14.854;2023-02-13T07:05:12;101219.16;;;7.25
76476;BMP280;65308;50.078;14.854;2023-02-13T07:07:41;101209.69;;;7.28
76476;BMP280;65308;50.078;14.854;2023-02-13T07:10:10;101218.81;;;7.27
76476;BMP280;65308;50.078;14.854;2023-02-13T07:12:38;101213.84;;;7.25
76476;BMP280;65308;50.078;14.854;2023-02-13T07:15:05;101219.59;;;7.31
76476;BMP280;65308;50.078;14.854;2023-02-13T07:17:35;101226.50;;;7.36
76476;BMP280;65308;50.078;14.854;2023-02-13T07:20:07;101228.81;;;7.37
76476;BMP280;65308;50.078;14.854;2023-02-13T07:22:34;101231.50;;;7.41
76476;BMP280;65308;50.078;14.854;2023-02-13T07:25:01;101223.06;;;7.35
76476;BMP280;65308;50.078;14.854;2023-02-13T07:27:29;101231.47;;;7.37
76476;BMP280;65308;50.078;14.854;2023-02-13T07:29:56;101236.81;;;7.41
76476;BMP280;65308;50.078;14.854;2023-02-13T07:32:23;101239.88;;;7.39
76476;BMP280;65308;50.078;14.854;2023-02-13T07:34:52;101232.31;;;7.45
76476;BMP280;65308;50.078;14.854;2023-02-13T07:37:19;101233.88;;;7.49
76476;BMP280;65308;50.078;14.854;2023-02-13T07:39:46;101235.06;;;7.52
76476;BMP280;65308;50.078;14.854;2023-02-13T07:42:13;101240.44;;;7.56
76476;BMP280;65308;50.078;14.854;2023-02-13T07:44:40;101238.09;;;7.50
76476;BMP280;65308;50.078;14.854;2023-02-13T07:47:08;101226.56;;;7.43
76476;BMP280;65308;50.078;14.854;2023-02-13T07:49:35;101225.16;;;7.49
76476;BMP280;65308;50.078;14.854;2023-02-13T07:52:07;101227.81;;;7.49
76476;BMP280;65308;50.078;14.854;2023-02-13T07:54:35;101228.75;;;7.34
76476;BMP280;65308;50.078;14.854;2023-02-13T07:57:11;101228.81;;;7.41
76476;BMP280;65308;50.078;14.854;2023-02-13T07:59:38;101225.16;;;7.49
76476;BMP280;65308;50.078;14.854;2023-02-13T08:02:05;101222.56;;;7.56
76476;BMP280;65308;50.078;14.854;2023-02-13T08:04:32;101226.88;;;7.68
76476;BMP280;65308;50.078;14.854;2023-02-13T08:06:59;101219.97;;;7.67
76476;BMP280;65308;50.078;14.854;2023-02-13T08:09:39;101221.59;;;7.75
76476;BMP280;65308;50.078;14.854;2023-02-13T08:12:23;101222.47;;;7.86
76476;BMP280;65308;50.078;14.854;2023-02-13T08:14:52;101226.38;;;7.96
76476;BMP280;65308;50.078;14.854;2023-02-13T08:17:18;101224.88;;;8.02
76476;BMP280;65308;50.078;14.854;2023-02-13T08:19:46;101220.00;;;8.08
76476;BMP280;65308;50.078;14.854;2023-02-13T08:22:12;101220.00;;;8.11
76476;BMP280;65308;50.078;14.854;2023-02-13T08:24:41;101228.47;;;8.17
76476;BMP280;65308;50.078;14.854;2023-02-13T08:27:11;101223.53;;;8.22
76476;BMP280;65308;50.078;14.854;2023-02-13T08:29:38;101222.78;;;8.26
76476;BMP280;65308;50.078;14.854;2023-02-13T08:32:06;101220.53;;;8.31
76476;BMP280;65308;50.078;14.854;2023-02-13T08:34:33;101221.69;;;8.37
76476;BMP280;65308;50.078;14.854;2023-02-13T08:37:00;101220.25;;;8.43
76476;BMP280;65308;50.078;14.854;2023-02-13T08:39:27;101212.59;;;8.42
76476;BMP280;65308;50.078;14.854;2023-02-13T08:41:56;101212.88;;;8.30
76476;BMP280;65308;50.078;14.854;2023-02-13T08:44:23;101216.03;;;8.42
76476;BMP280;65308;50.078;14.854;2023-02-13T08:46:50;101238.97;;;8.51
76476;BMP280;65308;50.078;14.854;2023-02-13T08:49:17;101231.78;;;8.55
76476;BMP280;65308;50.078;14.854;2023-02-13T08:51:44;101231.81;;;8.65
76476;BMP280;65308;50.078;14.854;2023-02-13T08:54:11;101237.22;;;8.76
76476;BMP280;65308;50.078;14.854;2023-02-13T08:56:40;101225.03;;;8.82
76476;BMP280;65308;50.078;14.854;2023-02-13T08:59:09;101223.16;;;8.90
76476;BMP280;65308;50.078;14.854;2023-02-13T09:01:36;101240.75;;;9.02
76476;BMP280;65308;50.078;14.854;2023-02-13T09:04:03;101238.16;;;9.16
76476;BMP280;65308;50.078;14.854;2023-02-13T09:06:31;101231.31;;;9.29
76476;BMP280;65308;50.078;14.854;2023-02-13T09:08:58;101236.34;;;9.45
76476;BMP280;65308;50.078;14.854;2023-02-13T09:11:25;101232.16;;;9.55
76476;BMP280;65308;50.078;14.854;2023-02-13T09:13:52;101234.44;;;9.60
76476;BMP280;65308;50.078;14.854;2023-02-13T09:16:22;101228.75;;;9.79
76476;BMP280;65308;50.078;14.854;2023-02-13T09:18:50;101233.34;;;9.93
76476;BMP280;65308;50.078;14.854;2023-02-13T09:21:18;101226.44;;;10.10
76476;BMP280;65308;50.078;14.854;2023-02-13T09:23:45;101228.72;;;10.26
76476;BMP280;65308;50.078;14.854;2023-02-13T09:26:14;101237.50;;;10.41
76476;BMP280;65308;50.078;14.854;2023-02-13T09:28:41;101237.47;;;10.55
76476;BMP280;65308;50.078;14.854;2023-02-13T09:31:11;101240.09;;;10.69
76476;BMP280;65308;50.078;14.854;2023-02-13T09:33:40;101243.09;;;10.86
76476;BMP280;65308;50.078;14.854;2023-02-13T09:36:10;101245.78;;;10.96
76476;BMP280;65308;50.078;14.854;2023-02-13T09:38:38;101234.59;;;11.05
76476;BMP280;65308;50.078;14.854;2023-02-13T09:41:10;101246.81;;;11.13
76476;BMP280;65308;50.078;14.854;2023-02-13T09:43:43;101245.69;;;11.07
76476;BMP280;65308;50.078;14.854;2023-02-13T09:46:12;101248.78;;;10.98
76476;BMP280;65308;50.078;14.854;2023-02-13T09:48:45;101244.94;;;11.03
76476;BMP280;65308;50.078;14.854;2023-02-13T09:51:16;101235.31;;;11.16
76476;BMP280;65308;50.078;14.854;2023-02-13T09:53:50;101238.34;;;11.22
76476;BMP280;65308;50.078;14.854;2023-02-13T09:56:21;101243.28;;;11.30
76476;BMP280;65308;50.078;14.854;2023-02-13T09:58:54;101249.34;;;11.42
76476;BMP280;65308;50.078;14.854;2023-02-13T10:01:27;101248.22;;;11.36
76476;BMP280;65308;50.078;14.854;2023-02-13T10:04:11;101245.13;;;11.44
76476;BMP280;65308;50.078;14.854;2023-02-13T10:06:43;101246.22;;;11.50
76476;BMP280;65308;50.078;14.854;2023-02-13T10:09:21;101254.56;;;11.63
76476;BMP280;65308;50.078;14.854;2023-02-13T10:14:51;101248.75;;;11.68
76476;BMP280;65308;50.078;14.854;2023-02-13T10:17:23;101255.00;;;11.58
76476;BMP280;65308;50.078;14.854;2023-02-13T10:19:57;101247.03;;;11.44
76476;BMP280;65308;50.078;14.854;2023-02-13T10:22:29;101247.00;;;11.51
76476;BMP280;65308;50.078;14.854;2023-02-13T10:25:02;101247.00;;;11.47
76476;BMP280;65308;50.078;14.854;2023-02-13T10:27:33;101244.63;;;11.56
76476;BMP280;65308;50.078;14.854;2023-02-13T10:30:04;101249.69;;;11.51
76476;BMP280;65308;50.078;14.854;2023-02-13T10:33:03;101245.78;;;11.59
76476;BMP280;65308;50.078;14.854;2023-02-13T10:35:52;101240.03;;;11.61
76476;BMP280;65308;50.078;14.854;2023-02-13T10:38:23;101239.28;;;11.60
76476;BMP280;65308;50.078;14.854;2023-02-13T10:41:03;101238.41;;;11.70
76476;BMP280;65308;50.078;14.854;2023-02-13T10:43:37;101237.91;;;11.86
76476;BMP280;65308;50.078;14.854;2023-02-13T10:46:10;101228.56;;;12.01
76476;BMP280;65308;50.078;14.854;2023-02-13T10:48:56;101227.00;;;12.08
76476;BMP280;65308;50.078;14.854;2023-02-13T10:51:31;101228.03;;;12.17
76476;BMP280;65308;50.078;14.854;2023-02-13T10:54:16;101227.66;;;12.15
76476;BMP280;65308;50.078;14.854;2023-02-13T10:57:02;101215.97;;;12.33
76476;BMP280;65308;50.078;14.854;2023-02-13T10:59:53;101227.75;;;12.46
76476;BMP280;65308;50.078;14.854;2023-02-13T11:02:24;101222.72;;;12.48
76476;BMP280;65308;50.078;14.854;2023-02-13T11:04:56;101219.53;;;12.57
76476;BMP280;65308;50.078;14.854;2023-02-13T11:07:26;101215.72;;;12.54
76476;BMP280;65308;50.078;14.854;2023-02-13T11:09:58;101215.09;;;12.43
76476;BMP280;65308;50.078;14.854;2023-02-13T11:12:28;101212.00;;;12.44
76476;BMP280;65308;50.078;14.854;2023-02-13T11:14:57;101210.03;;;12.48
76476;BMP280;65308;50.078;14.854;2023-02-13T11:17:26;101198.81;;;12.57
76476;BMP280;65308;50.078;14.854;2023-02-13T11:19:55;101204.53;;;12.59
76476;BMP280;65308;50.078;14.854;2023-02-13T11:22:31;101211.72;;;12.69
76476;BMP280;65308;50.078;14.854;2023-02-13T11:25:01;101213.81;;;12.85
76476;BMP280;65308;50.078;14.854;2023-02-13T11:27:31;101207.25;;;12.86
76476;BMP280;65308;50.078;14.854;2023-02-13T11:30:01;101218.06;;;12.83
76476;BMP280;65308;50.078;14.854;2023-02-13T11:32:29;101219.13;;;12.89
76476;BMP280;65308;50.078;14.854;2023-02-13T11:35:25;101216.50;;;12.55
76476;BMP280;65308;50.078;14.854;2023-02-13T11:38:17;101216.69;;;12.37
76476;BMP280;65308;50.078;14.854;2023-02-13T11:40:49;101210.25;;;12.61
76476;BMP280;65308;50.078;14.854;2023-02-13T11:43:18;101210.72;;;12.56
76476;BMP280;65308;50.078;14.854;2023-02-13T11:45:46;101205.41;;;12.49
76476;BMP280;65308;50.078;14.854;2023-02-13T11:48:20;101207.22;;;12.59
76476;BMP280;65308;50.078;14.854;2023-02-13T11:50:50;101218.06;;;12.83
76476;BMP280;65308;50.078;14.854;2023-02-13T11:53:22;101214.47;;;12.93
76476;BMP280;65308;50.078;14.854;2023-02-13T11:56:01;101213.88;;;13.09
76476;BMP280;65308;50.078;14.854;2023-02-13T11:58:29;101209.03;;;13.23
76476;BMP280;65308;50.078;14.854;2023-02-13T12:01:25;101214.59;;;13.40
76476;BMP280;65308;50.078;14.854;2023-02-13T12:04:00;101215.16;;;13.51
76476;BMP280;65308;50.078;14.854;2023-02-13T12:06:27;101203.78;;;13.63
76476;BMP280;65308;50.078;14.854;2023-02-13T12:08:58;101199.47;;;13.69
76476;BMP280;65308;50.078;14.854;2023-02-13T12:11:35;101187.75;;;13.80
76476;BMP280;65308;50.078;14.854;2023-02-13T12:14:08;101194.03;;;13.73
76476;BMP280;65308;50.078;14.854;2023-02-13T12:16:41;101184.09;;;13.70
76476;BMP280;65308;50.078;14.854;2023-02-13T12:19:28;101184.59;;;13.85
76476;BMP280;65308;50.078;14.854;2023-02-13T12:22:14;101182.44;;;13.96
76476;BMP280;65308;50.078;14.854;2023-02-13T12:24:58;101181.06;;;14.08
76476;BMP280;65308;50.078;14.854;2023-02-13T12:27:36;101172.72;;;14.22
76476;BMP280;65308;50.078;14.854;2023-02-13T12:30:30;101167.06;;;14.16
76476;BMP280;65308;50.078;14.854;2023-02-13T12:33:11;101162.97;;;14.28
76476;BMP280;65308;50.078;14.854;2023-02-13T12:35:48;101164.94;;;14.28
76476;BMP280;65308;50.078;14.854;2023-02-13T12:38:29;101158.53;;;14.38
76476;BMP280;65308;50.078;14.854;2023-02-13T12:41:12;101155.00;;;14.41
76476;BMP280;65308;50.078;14.854;2023-02-13T12:44:10;101152.81;;;14.52
76476;BMP280;65308;50.078;14.854;2023-02-13T12:46:51;101152.19;;;14.64
76476;BMP280;65308;50.078;14.854;2023-02-13T12:49:48;101142.06;;;14.68
76476;BMP280;65308;50.078;14.854;2023-02-13T12:52:27;101148.34;;;14.82
76476;BMP280;65308;50.078;14.854;2023-02-13T12:55:10;101136.38;;;14.83
76476;BMP280;65308;50.078;14.854;2023-02-13T12:57:51;101128.28;;;14.83
76476;BMP280;65308;50.078;14.854;2023-02-13T13:00:30;101130.97;;;14.83
76476;BMP280;65308;50.078;14.854;2023-02-13T13:03:34;101140.97;;;14.49
76476;BMP280;65308;50.078;14.854;2023-02-13T13:06:20;101129.31;;;14.53
76476;BMP280;65308;50.078;14.854;2023-02-13T13:11:59;101125.84;;;14.56
76476;BMP280;65308;50.078;14.854;2023-02-13T13:14:37;101126.22;;;14.54
76476;BMP280;65308;50.078;14.854;2023-02-13T13:17:17;101136.09;;;14.61
76476;BMP280;65308;50.078;14.854;2023-02-13T13:20:01;101129.28;;;14.56
76476;BMP280;65308;50.078;14.854;2023-02-13T13:22:43;101120.84;;;14.54
76476;BMP280;65308;50.078;14.854;2023-02-13T13:25:20;101114.94;;;14.59
76476;BMP280;65308;50.078;14.854;2023-02-13T13:27:54;101123.91;;;14.56
76476;BMP280;65308;50.078;14.854;2023-02-13T13:30:31;101118.91;;;14.55
76476;BMP280;65308;50.078;14.854;2023-02-13T13:33:02;101128.94;;;14.54
76476;BMP280;65308;50.078;14.854;2023-02-13T13:35:35;101127.13;;;14.47
76476;BMP280;65308;50.078;14.854;2023-02-13T13:38:13;101121.38;;;14.29
76476;BMP280;65308;50.078;14.854;2023-02-13T13:40:49;101118.41;;;14.23
76476;BMP280;65308;50.078;14.854;2023-02-13T13:43:25;101118.84;;;14.22
76476;BMP280;65308;50.078;14.854;2023-02-13T13:46:02;101125.41;;;14.21
76476;BMP280;65308;50.078;14.854;2023-02-13T13:48:51;101117.69;;;14.23
76476;BMP280;65308;50.078;14.854;2023-02-13T13:51:21;101111.19;;;14.20
76476;BMP280;65308;50.078;14.854;2023-02-13T13:57:23;101121.19;;;14.20
76476;BMP280;65308;50.078;14.854;2023-02-13T13:59:57;101121.66;;;14.15
76476;BMP280;65308;50.078;14.854;2023-02-13T14:02:37;101119.41;;;14.13
76476;BMP280;65308;50.078;14.854;2023-02-13T14:05:17;101135.94;;;14.15
76476;BMP280;65308;50.078;14.854;2023-02-13T14:07:47;101128.63;;;14.12
76476;BMP280;65308;50.078;14.854;2023-02-13T14:13:35;101123.50;;;14.02
76476;BMP280;65308;50.078;14.854;2023-02-13T14:16:03;101122.03;;;13.97
76476;BMP280;65308;50.078;14.854;2023-02-13T14:18:31;101118.31;;;13.91
76476;BMP280;65308;50.078;14.854;2023-02-13T14:20:59;101111.13;;;13.84
76476;BMP280;65308;50.078;14.854;2023-02-13T14:23:34;101127.69;;;13.83
76476;BMP280;65308;50.078;14.854;2023-02-13T14:26:16;101115.53;;;13.74
76476;BMP280;65308;50.078;14.854;2023-02-13T14:28:56;101122.94;;;13.70
76476;BMP280;65308;50.078;14.854;2023-02-13T14:31:25;101127.50;;;13.73
76476;BMP280;65308;50.078;14.854;2023-02-13T14:33:59;101129.50;;;13.69
76476;BMP280;65308;50.078;14.854;2023-02-13T14:36:28;101125.69;;;13.67
76476;BMP280;65308;50.078;14.854;2023-02-13T14:38:59;101131.66;;;13.55
76476;BMP280;65308;50.078;14.854;2023-02-13T14:41:44;101122.06;;;13.54